Historique des mesures à Cassis (13260), France
Quotidien Résumé Mai 1, 2017 Unités:  US    Métrique   Métrique/US
« Précédent (Jour)
Suivant (Jour) »
Quotidien Hebdomadaire Mensuel Annuel Période au choix
  Maximum: Minimum: Moyenne:
Température: 32 °F 46.9 °F 53.8 °F
Point de rosée: 32 °F 39.9 °F 42.4 °F
Humidité: Humidity % 46 % 63 %
Vitesse du vent: WindSpeedKMH mph 3.2 mph 13.5 mph
Rafales: WindSpeedGustKMH mph - -
Vent:- - South
Pression: 0 in 29.8 in -
Précipitations: 200.66 in    
Historical Graphs
 
 
Mesures pour : Mai 1, 2017
Heure Temperature Point de rosée Pression Vent Vitesse du vent Rafales Humidité Pluie (par heure) Conditions
32 °F 32 °F 0 in Calm     Humidity % 0 in SoftwareType W/m2
00:10 56.8 °F 50.4 °F 29.8 in SE 4.7 mph 5.0 mph 79 % 38.1 in open2300-1.11 W/m2
01:10 55.9 °F 50.7 °F 29.8 in WNW 5.8 mph 5.8 mph 83 % 129.54 in open2300-1.11 W/m2
02:11 49.3 °F 44.1 °F 29.8 in NW 11.1 mph 17.7 mph 82 % 0 in open2300-1.11 W/m2
03:10 48.2 °F 43 °F 29.8 in NNW 25.9 mph 25.9 mph 82 % 0 in open2300-1.11 W/m2
04:10 47.5 °F 41.9 °F 29.8 in North 15.4 mph 17.7 mph 81 % 25.4 in open2300-1.11 W/m2
05:11 46.9 °F 41.7 °F 29.8 in NNE 9.7 mph 9.7 mph 82 % 25.4 in open2300-1.11 W/m2
06:10 47.8 °F 41.5 °F 29.8 in West 16.6 mph 16.6 mph 79 % 0 in open2300-1.11 W/m2
07:10 46.9 °F 40.8 °F 29.8 in North 24.8 mph 24.8 mph 79 % 0 in open2300-1.11 W/m2
08:10 49.8 °F 40.8 °F 29.8 in North 12.2 mph 16.6 mph 71 % 0 in open2300-1.11 W/m2
09:11 48.9 °F 39.9 °F 29.9 in North 17.2 mph 23.3 mph 71 % 0 in open2300-1.11 W/m2
10:10 50.2 °F 40.5 °F 29.9 in NNE 15.4 mph 25.6 mph 69 % 0 in open2300-1.11 W/m2
11:10 54.1 °F 41.7 °F 29.9 in NE 15.4 mph 29.1 mph 63 % 0 in open2300-1.11 W/m2
12:10 55.6 °F 41.9 °F 29.9 in NE 13.4 mph 39.6 mph 60 % 0 in open2300-1.11 W/m2
13:10 58.5 °F 43.2 °F 29.9 in NNE 11.9 mph 31.7 mph 57 % 0 in open2300-1.11 W/m2
14:10 59.7 °F 43 °F 29.9 in WNW 22.4 mph 22.4 mph 54 % 0 in open2300-1.11 W/m2
15:10 61.3 °F 43.5 °F 29.9 in NW 16.9 mph 24.5 mph 52 % 0 in open2300-1.11 W/m2
16:10 61 °F 41.7 °F 29.9 in North 9.7 mph 15.4 mph 49 % 0 in open2300-1.11 W/m2
17:10 61.7 °F 40.6 °F 29.9 in NNW 16.9 mph 16.9 mph 46 % 0 in open2300-1.11 W/m2
18:10 61.9 °F 41.4 °F 29.9 in NW 22.4 mph 34.1 mph 47 % 0 in open2300-1.11 W/m2
19:10 61.5 °F 44.2 °F 29.9 in North 20.9 mph 20.9 mph 53 % 0 in open2300-1.11 W/m2
20:10 59.5 °F 45.7 °F 29.9 in NW 10.5 mph 15.4 mph 60 % 0 in open2300-1.11 W/m2
21:10 58.6 °F 43.9 °F 30 in NW 3.2 mph 11.1 mph 58 % 0 in open2300-1.11 W/m2
22:11 57 °F 41.5 °F 30 in NW 8.7 mph 9.3 mph 56 % 0 in open2300-1.11 W/m2
23:10 55.8 °F 40.6 °F 30 in NNW 6.8 mph 18.7 mph 57 % 0 in open2300-1.11 W/m2
Observations météo à CASSIS
WU-History script by Weather Underground - 1 mb